West Cameron, Pennsylvania
Current Conditions -  °F | °C
As of 8:53 AM on Friday 24 Oct 2014 (Local Time) from KSEG Reporting Station
Few Clouds Few Clouds  
Wind Chill: 56°   Ceiling: Unl
Heat Index: 56°   Visibility: 10mi
Dew Point: 42°   Wind: 9mph
Humidity: 60%   Direction: 300°WNW
Pressure: 29.95"   Gusts: NA
Location:  40.7842°N, 76.5797°W
Report Text: KSEG 241253Z AUTO 30008KT 10SM FEW037 13/06 A2995 RMK AO2 SLP142 T01330056
Loading
Personal Weather Stations






























Interactive Weather Map
Tropical Storm Tracking
New forecast layout! Learn more

10-Day Weather Forecast

Advertisements
Track Severe Weather on mobile